Kezdőlap
METAR-TAF:

METAR-TAF

Repülőterek :

RAF Wittering

Wittering, Anglia

földrajzi szélesség: 52-37N, földrajzi hosszúság: 000-28W, magasság: 84 m

Jelenlegi meteorológiai megfigyelések

A jelentés 1 órával és 4 perccel ezelõtt készült, 08:50 UTC
Nyugati szél 17 kt
Hőmérséklet 6°C
Páratartalom 87%
Légköri nyomás 975 hPa
Látótávolság 10 km, vagy több

METAR: EGXT 130850Z AUTO 26017KT 9999 SCT027/// BKN120/// 06/04 Q0975

Idő: 09:54 (09:54 UTC)


TAF: hiányzik

Meteorológiai megfigyelések és előrejelzések több, mint 4000 repülőtéren (METAR és TAF jelentéseket).

A térképen piros és sárga pontok jelzik az elérhető meteorológiai állomásokat.

Mozgassa az egeret a pont fölött, hogy megjelenjen az állomás neve.

Azután kattintson az időjárási megfigyelések és előrejelzések megtekintéséhez.

A térkép megváltoztatása: kattintson a fekete keresztel jelölt zöld gombra ráközelítéshez, a vonallal jelölt zöld gombra távolításhoz, vagy a zöld nyilakra a szomszédos térképek eléréséhez.


METAR-TAF: